Time;durP1;ratioP1;P1;durP2;ratioP2;P2;SDS_P1;SDS_P2;PMS_P1;PMS_P2;Temp;Humidity;BMP_temperature;BMP_pressure;BME280_temperature;BME280_humidity;BME280_pressure;Samples;Min_cycle;Max_cycle;Signal;HPM_P1;HPM_P2
2021/12/11 00:00:15;;;;;;;27.77;17.83;;;2.30;99.90;;;;;;5133055;27;20055;-66
2021/12/11 00:02:42;;;;;;;30.15;17.88;;;2.30;99.90;;;;;;5112641;27;20046;-66
2021/12/11 00:05:12;;;;;;;25.90;16.75;;;2.30;99.90;;;;;;5146658;27;20524;-66
2021/12/11 00:07:38;;;;;;;25.00;17.20;;;2.30;99.90;;;;;;5127784;27;20047;-66
2021/12/11 00:10:18;;;;;;;28.20;17.17;;;2.20;99.90;;;;;;5128485;27;20039;-66
2021/12/11 00:12:52;;;;;;;21.42;16.23;;;2.20;99.90;;;;;;5136901;27;20126;-66
2021/12/11 00:15:31;;;;;;;25.65;16.73;;;2.20;99.90;;;;;;5114870;27;20381;-67
2021/12/11 00:18:12;;;;;;;30.52;17.73;;;2.30;99.90;;;;;;5135033;27;20047;-66
2021/12/11 00:20:42;;;;;;;27.63;17.27;;;2.20;99.90;;;;;;5138821;27;20038;-66
2021/12/11 00:23:08;;;;;;;26.00;16.85;;;2.20;99.90;;;;;;5119732;27;20429;-66
2021/12/11 00:25:42;;;;;;;26.20;16.98;;;2.30;99.90;;;;;;5113836;27;20043;-66
2021/12/11 00:28:09;;;;;;;27.98;17.95;;;2.20;99.90;;;;;;5141801;27;20043;-66
2021/12/11 00:30:38;;;;;;;30.25;18.30;;;2.20;99.90;;;;;;5131860;27;20497;-66
2021/12/11 00:33:28;;;;;;;27.83;17.08;;;2.20;99.90;;;;;;5137658;27;20047;-66
2021/12/11 00:35:55;;;;;;;27.63;17.77;;;2.10;99.90;;;;;;5117707;27;20152;-66
2021/12/11 00:38:32;;;;;;;32.83;18.52;;;2.00;99.90;;;;;;5113499;27;20117;-66
2021/12/11 00:40:59;;;;;;;29.67;16.92;;;2.00;99.90;;;;;;5126008;27;20100;-66
2021/12/11 00:43:29;;;;;;;27.42;17.42;;;2.00;99.90;;;;;;5136561;27;20059;-67
2021/12/11 00:45:57;;;;;;;30.10;17.25;;;2.10;99.90;;;;;;5113236;27;20520;-66
2021/12/11 00:48:25;;;;;;;32.95;19.60;;;2.10;99.90;;;;;;5114792;27;20111;-66
2021/12/11 00:51:01;;;;;;;31.25;18.73;;;2.10;99.90;;;;;;5131782;27;20052;-66
2021/12/11 00:53:38;;;;;;;27.60;18.85;;;2.10;99.90;;;;;;5113761;27;20059;-66
2021/12/11 00:56:11;;;;;;;29.98;18.95;;;2.10;99.90;;;;;;5111636;27;20147;-65
2021/12/11 00:58:40;;;;;;;24.90;17.23;;;2.10;99.90;;;;;;5122733;27;20039;-66
2021/12/11 01:01:08;;;;;;;31.30;18.20;;;2.10;99.90;;;;;;5139200;27;20697;-66
2021/12/11 01:03:39;;;;;;;27.48;16.65;;;2.10;99.90;;;;;;5108595;27;20050;-66
2021/12/11 01:06:19;;;;;;;24.90;17.27;;;2.20;99.90;;;;;;5131301;27;20047;-66
2021/12/11 01:08:55;;;;;;;22.55;15.95;;;2.10;99.90;;;;;;5105702;27;20127;-66
2021/12/11 01:11:32;;;;;;;29.70;17.23;;;2.00;99.90;;;;;;5106991;27;20047;-66
2021/12/11 01:14:54;;;;;;;29.50;17.30;;;2.00;99.90;;;;;;5111862;27;20046;-66
2021/12/11 01:17:13;;;;;;;22.73;15.40;;;2.00;99.90;;;;;;5127050;27;20404;-66
2021/12/11 01:19:41;;;;;;;22.77;15.77;;;2.00;99.90;;;;;;5112591;27;20074;-66
2021/12/11 01:22:22;;;;;;;28.83;17.00;;;2.00;99.90;;;;;;5132041;27;20150;-66
2021/12/11 01:24:52;;;;;;;30.13;17.27;;;2.00;99.90;;;;;;5123518;27;20054;-66
2021/12/11 01:27:23;;;;;;;24.42;16.60;;;1.90;99.90;;;;;;5111903;27;20075;-65
2021/12/11 01:29:53;;;;;;;25.80;15.40;;;1.90;99.90;;;;;;5116004;27;20062;-66
2021/12/11 01:32:19;;;;;;;24.38;15.82;;;1.80;99.90;;;;;;5120854;27;20612;-66
2021/12/11 01:34:45;;;;;;;30.38;16.58;;;1.70;99.90;;;;;;5112066;27;20099;-66
2021/12/11 01:37:13;;;;;;;32.17;17.95;;;1.60;99.90;;;;;;5128267;27;20043;-66
2021/12/11 01:39:41;;;;;;;22.02;15.48;;;1.50;99.90;;;;;;5116184;27;20489;-67
2021/12/11 01:42:30;;;;;;;24.58;15.82;;;1.50;99.90;;;;;;5112418;27;20042;-66
2021/12/11 01:44:57;;;;;;;28.88;16.95;;;1.50;99.90;;;;;;5125062;27;20047;-66
2021/12/11 01:47:44;;;;;;;22.70;15.52;;;1.50;99.90;;;;;;5126187;27;20542;-66
2021/12/11 01:50:19;;;;;;;32.05;18.63;;;1.50;99.90;;;;;;5130533;27;20047;-66
2021/12/11 01:52:50;;;;;;;24.20;15.77;;;1.50;99.90;;;;;;5139748;27;20405;-66
2021/12/11 01:55:38;;;;;;;27.63;17.20;;;1.50;99.90;;;;;;5108387;27;20043;-65
2021/12/11 01:58:07;;;;;;;22.63;15.73;;;1.60;99.90;;;;;;5131395;27;20083;-66
2021/12/11 02:00:41;;;;;;;25.30;15.90;;;1.60;99.90;;;;;;5147788;27;20553;-66
2021/12/11 02:03:12;;;;;;;27.60;18.40;;;1.70;99.90;;;;;;5140267;27;20035;-66
2021/12/11 02:05:40;;;;;;;23.25;16.77;;;1.70;99.90;;;;;;5149362;27;20370;-66
2021/12/11 02:08:10;;;;;;;26.67;16.90;;;1.70;99.90;;;;;;5124185;27;20096;-66
2021/12/11 02:10:44;;;;;;;23.23;16.67;;;1.70;99.90;;;;;;5130994;27;20112;-66
2021/12/11 02:13:13;;;;;;;25.65;17.80;;;1.70;99.90;;;;;;5137712;27;20051;-66
2021/12/11 02:15:47;;;;;;;29.05;15.82;;;1.70;99.90;;;;;;5111832;27;20054;-66
2021/12/11 02:18:32;;;;;;;24.75;16.50;;;1.50;99.90;;;;;;5111988;27;20047;-66
2021/12/11 02:21:03;;;;;;;25.75;16.45;;;1.50;99.90;;;;;;5132024;27;20051;-66
2021/12/11 02:23:29;;;;;;;21.10;15.05;;;1.50;99.90;;;;;;5141263;27;20061;-66
2021/12/11 02:26:09;;;;;;;26.75;16.95;;;1.50;99.90;;;;;;5142182;27;20863;-66
2021/12/11 02:28:39;;;;;;;32.30;16.27;;;1.50;99.90;;;;;;5110829;28;20538;-66
2021/12/11 02:31:31;;;;;;;22.88;16.10;;;1.50;99.90;;;;;;5110200;27;20086;-66
2021/12/11 02:34:12;;;;;;;21.42;15.50;;;1.50;99.90;;;;;;5141204;27;20055;-66
2021/12/11 02:36:43;;;;;;;25.50;16.67;;;1.50;99.90;;;;;;5128932;28;20039;-66
2021/12/11 02:39:19;;;;;;;21.77;16.23;;;1.50;99.90;;;;;;5129270;28;20488;-66
2021/12/11 02:42:03;;;;;;;25.35;15.43;;;1.50;99.90;;;;;;5109387;28;20122;-66
2021/12/11 02:44:34;;;;;;;31.77;18.45;;;1.50;99.90;;;;;;5120306;27;20067;-66
2021/12/11 02:47:09;;;;;;;20.90;16.02;;;1.50;99.90;;;;;;5142326;27;20053;-66
2021/12/11 02:50:09;;;;;;;24.20;16.70;;;1.40;99.90;;;;;;5132669;27;20038;-66
2021/12/11 02:52:43;;;;;;;28.30;16.63;;;1.40;99.90;;;;;;5110579;28;20046;-66
2021/12/11 02:55:11;;;;;;;;;;;1.50;99.90;;;;;;5135476;27;20065;-66
2021/12/11 02:57:50;;;;;;;25.42;15.82;;;1.40;99.90;;;;;;5124048;27;19984;-66
2021/12/11 03:00:21;;;;;;;26.13;16.75;;;1.40;99.90;;;;;;5129193;27;20075;-66
2021/12/11 03:03:02;;;;;;;26.63;17.10;;;1.50;99.90;;;;;;5110255;27;20051;-66
2021/12/11 03:05:38;;;;;;;24.08;16.90;;;1.40;99.90;;;;;;5148132;27;20037;-66
2021/12/11 03:08:06;;;;;;;26.75;16.30;;;1.30;99.90;;;;;;5132470;27;20050;-66
2021/12/11 03:10:33;;;;;;;24.10;16.90;;;1.30;99.90;;;;;;5133770;27;20975;-66
2021/12/11 03:12:59;;;;;;;24.65;16.83;;;1.20;99.90;;;;;;5115140;28;20402;-66
2021/12/11 03:15:25;;;;;;;24.45;16.98;;;1.20;99.90;;;;;;5109890;28;20047;-66
2021/12/11 03:17:51;;;;;;;23.63;15.48;;;1.20;99.90;;;;;;5128066;28;20114;-66
2021/12/11 03:20:19;;;;;;;29.13;16.65;;;1.30;99.90;;;;;;5124833;27;20047;-66
2021/12/11 03:22:46;;;;;;;28.65;16.27;;;1.30;99.90;;;;;;5115406;28;20054;-66
2021/12/11 03:25:20;;;;;;;21.48;14.82;;;1.40;99.90;;;;;;5110910;27;20117;-66
2021/12/11 03:27:46;;;;;;;28.90;18.23;;;1.40;99.90;;;;;;5124925;27;20035;-66
2021/12/11 03:30:16;;;;;;;21.45;14.95;;;1.40;99.90;;;;;;5093602;28;1008130;-66
2021/12/11 03:32:41;;;;;;;21.85;15.68;;;1.40;99.90;;;;;;5109875;28;20045;-66
2021/12/11 03:35:08;;;;;;;27.33;17.88;;;1.40;99.90;;;;;;5145797;27;20129;-66
2021/12/11 03:37:34;;;;;;;27.00;17.23;;;1.30;99.90;;;;;;5133111;27;20042;-66
2021/12/11 03:40:00;;;;;;;25.48;16.38;;;1.30;99.90;;;;;;5144032;27;20486;-66
2021/12/11 03:42:33;;;;;;;24.25;16.30;;;1.30;99.90;;;;;;5133714;27;20163;-65
2021/12/11 03:45:00;;;;;;;25.63;16.00;;;1.30;99.90;;;;;;5133497;27;20045;-65
2021/12/11 03:47:31;;;;;;;22.02;15.35;;;1.30;99.90;;;;;;5125555;27;20043;-65
2021/12/11 03:49:57;;;;;;;29.00;15.85;;;1.30;99.90;;;;;;5131978;27;20043;-65
2021/12/11 03:52:23;;;;;;;23.45;16.15;;;1.20;99.90;;;;;;5115062;27;20059;-65
2021/12/11 03:54:51;;;;;;;24.90;17.42;;;1.20;99.90;;;;;;5116372;27;20715;-65
2021/12/11 03:57:20;;;;;;;27.48;17.20;;;1.20;99.90;;;;;;5140215;27;20079;-68
2021/12/11 03:59:48;;;;;;;21.67;13.88;;;1.20;99.90;;;;;;5110070;28;20483;-65
2021/12/11 04:02:15;;;;;;;24.13;15.98;;;1.10;99.90;;;;;;5120442;27;20090;-65
2021/12/11 04:04:45;;;;;;;25.33;15.30;;;1.00;99.90;;;;;;5114993;27;20046;-65
2021/12/11 04:07:15;;;;;;;25.48;16.38;;;0.90;99.90;;;;;;5143218;27;20481;-65
2021/12/11 04:09:41;;;;;;;18.00;13.30;;;0.90;99.90;;;;;;5139760;27;20050;-65
2021/12/11 04:12:08;;;;;;;23.52;15.05;;;0.90;99.90;;;;;;5138967;27;20050;-65
2021/12/11 04:14:38;;;;;;;22.02;15.25;;;0.90;99.90;;;;;;5114442;27;20482;-65
2021/12/11 04:17:05;;;;;;;23.33;15.77;;;0.90;99.90;;;;;;5127226;27;20044;-65
2021/12/11 04:19:32;;;;;;;21.25;15.40;;;0.90;99.90;;;;;;5148448;27;20043;-65
2021/12/11 04:21:58;;;;;;;22.02;14.82;;;0.80;99.90;;;;;;5131939;27;20070;-65
2021/12/11 04:24:27;;;;;;;21.38;13.93;;;0.80;99.90;;;;;;5142360;27;20812;-65
2021/12/11 04:26:54;;;;;;;21.85;15.07;;;0.90;99.90;;;;;;5117765;27;20039;-65
2021/12/11 04:29:20;;;;;;;23.30;15.23;;;1.00;99.90;;;;;;5126176;27;20053;-65
2021/12/11 04:31:47;;;;;;;24.25;15.20;;;1.00;99.90;;;;;;5132184;27;20114;-65
2021/12/11 04:34:15;;;;;;;24.35;17.00;;;1.10;99.90;;;;;;5132639;27;20053;-65
2021/12/11 04:36:46;;;;;;;25.77;17.00;;;1.10;99.90;;;;;;5124373;27;20059;-65
2021/12/11 04:39:15;;;;;;;22.73;15.23;;;1.10;99.90;;;;;;5113814;27;20535;-65
2021/12/11 04:41:53;;;;;;;26.13;17.02;;;1.10;99.90;;;;;;5112309;27;20115;-66
2021/12/11 04:44:31;;;;;;;22.80;14.68;;;1.00;99.90;;;;;;5128805;27;20035;-65
2021/12/11 04:46:57;;;;;;;20.10;14.25;;;0.90;99.90;;;;;;5131588;27;20051;-65
2021/12/11 04:49:37;;;;;;;22.23;15.10;;;0.90;99.90;;;;;;5111063;27;20126;-66
2021/12/11 04:52:12;;;;;;;26.25;15.75;;;0.90;99.90;;;;;;5113244;27;20047;-66
2021/12/11 04:54:53;;;;;;;21.85;15.82;;;0.90;99.90;;;;;;5113962;27;20051;-66
2021/12/11 05:01:15;;;;;;;20.05;14.85;;;1.00;99.90;;;;;;5125217;27;20085;-66
2021/12/11 05:05:47;;;;;;;23.77;15.13;;;1.00;99.90;;;;;;5128977;27;20051;-65
2021/12/11 05:13:41;;;;;;;21.58;15.45;;;1.00;99.90;;;;;;5118566;27;20065;-66
2021/12/11 05:16:14;;;;;;;21.73;15.25;;;0.90;99.90;;;;;;5131489;27;20533;-66
2021/12/11 05:18:42;;;;;;;21.25;15.70;;;0.90;99.90;;;;;;5140238;27;20039;-65
2021/12/11 05:21:12;;;;;;;21.30;14.32;;;0.90;99.90;;;;;;5130561;27;20047;-66
2021/12/11 05:23:38;;;;;;;22.23;14.98;;;0.80;99.90;;;;;;5131890;27;20074;-66
2021/12/11 05:26:05;;;;;;;20.38;14.38;;;0.90;99.90;;;;;;5129350;27;20123;-66
2021/12/11 05:28:31;;;;;;;21.42;14.90;;;0.90;99.90;;;;;;5129744;27;20055;-65
2021/12/11 05:31:01;;;;;;;20.05;15.45;;;0.90;99.90;;;;;;5129946;27;20066;-65
2021/12/11 05:33:27;;;;;;;25.48;15.60;;;0.90;99.90;;;;;;5121960;27;20085;-65
2021/12/11 05:35:53;;;;;;;20.65;15.68;;;0.80;99.90;;;;;;5124428;27;20066;-66
2021/12/11 05:38:21;;;;;;;22.42;15.52;;;0.90;99.90;;;;;;5112867;27;20047;-66
2021/12/11 05:40:51;;;;;;;20.13;13.75;;;0.90;99.90;;;;;;5124220;27;20048;-65
2021/12/11 05:43:18;;;;;;;25.73;14.93;;;0.90;99.90;;;;;;5130831;27;20506;-66
2021/12/11 05:45:45;;;;;;;19.52;14.10;;;0.90;99.90;;;;;;5144560;27;20415;-65
2021/12/11 05:48:11;;;;;;;21.75;15.27;;;0.90;99.90;;;;;;5137291;27;20043;-65
2021/12/11 05:50:41;;;;;;;25.20;16.45;;;0.90;99.90;;;;;;5108537;27;20042;-65
2021/12/11 05:53:07;;;;;;;25.48;15.00;;;0.80;99.90;;;;;;5135425;27;20055;-65
2021/12/11 05:55:34;;;;;;;22.35;15.00;;;0.90;99.90;;;;;;5129690;27;20055;-65
2021/12/11 05:58:10;;;;;;;25.20;15.13;;;0.80;99.90;;;;;;5133450;27;20747;-65
2021/12/11 06:00:40;;;;;;;26.48;15.25;;;0.70;99.90;;;;;;5116516;27;20438;-65
2021/12/11 06:03:06;;;;;;;23.95;14.07;;;0.70;99.90;;;;;;5125837;27;20513;-65
2021/12/11 06:05:32;;;;;;;21.73;13.68;;;0.70;99.90;;;;;;5113633;27;20122;-65
2021/12/11 06:07:58;;;;;;;24.25;15.73;;;0.70;99.90;;;;;;5146992;27;20053;-65
2021/12/11 06:10:25;;;;;;;21.30;14.55;;;0.70;99.90;;;;;;5131033;27;20035;-65
2021/12/11 06:12:55;;;;;;;19.23;12.93;;;0.70;99.90;;;;;;5124324;27;20502;-65
2021/12/11 06:15:21;;;;;;;24.85;15.88;;;0.70;99.90;;;;;;5117755;27;20045;-65
2021/12/11 06:17:47;;;;;;;21.38;14.75;;;0.80;99.90;;;;;;5150996;27;20099;-65
2021/12/11 06:20:17;;;;;;;23.67;15.32;;;0.80;99.90;;;;;;5130685;27;20035;-65
2021/12/11 06:22:44;;;;;;;22.58;15.63;;;0.80;99.90;;;;;;5108517;27;20050;-65
2021/12/11 06:25:16;;;;;;;24.35;14.38;;;0.80;99.90;;;;;;5141626;27;20042;-65
2021/12/11 06:27:43;;;;;;;26.70;15.23;;;0.70;99.90;;;;;;5130055;27;20051;-65
2021/12/11 06:30:10;;;;;;;24.35;15.95;;;0.70;99.90;;;;;;5110412;27;20794;-65
2021/12/11 06:32:36;;;;;;;21.08;15.40;;;0.70;99.90;;;;;;5135155;27;20081;-65
2021/12/11 06:35:31;;;;;;;26.23;15.65;;;0.70;99.90;;;;;;5129243;27;20043;-65
2021/12/11 06:37:57;;;;;;;24.25;15.20;;;0.70;99.90;;;;;;5104606;27;20471;-66
2021/12/11 06:40:25;;;;;;;26.42;15.40;;;0.70;99.90;;;;;;5135126;27;20455;-65
2021/12/11 06:42:51;;;;;;;21.60;15.00;;;0.60;99.90;;;;;;5122747;27;20039;-65
2021/12/11 06:45:18;;;;;;;24.30;15.15;;;0.70;99.90;;;;;;5122388;27;20059;-65
2021/12/11 06:47:44;;;;;;;21.15;14.13;;;0.70;99.90;;;;;;5130575;27;20091;-65
2021/12/11 06:50:09;;;;;;;26.65;16.48;;;0.70;99.90;;;;;;5107826;27;20338;-65
2021/12/11 06:52:35;;;;;;;32.53;18.58;;;0.70;99.90;;;;;;5111457;27;20051;-65
2021/12/11 06:55:03;;;;;;;76.47;20.13;;;0.70;99.90;;;;;;5129181;27;20439;-65
2021/12/11 06:57:29;;;;;;;190.52;22.70;;;0.80;99.90;;;;;;5125669;27;20589;-65
2021/12/11 06:59:54;;;;;;;196.52;22.25;;;0.90;99.90;;;;;;5128896;27;20043;-65
2021/12/11 07:02:21;;;;;;;111.38;16.60;;;0.90;99.90;;;;;;5120100;27;20047;-65
2021/12/11 07:04:48;;;;;;;209.00;21.73;;;0.90;99.90;;;;;;5136945;27;20074;-66
2021/12/11 07:07:20;;;;;;;215.68;20.45;;;0.80;99.90;;;;;;5130028;27;20423;-65
2021/12/11 07:09:46;;;;;;;76.75;17.17;;;0.80;99.90;;;;;;5115758;27;20075;-65
2021/12/11 07:12:12;;;;;;;289.73;23.10;;;0.80;99.90;;;;;;5131773;27;20118;-66
2021/12/11 07:14:38;;;;;;;201.15;20.42;;;0.70;99.90;;;;;;5130132;27;20488;-65
2021/12/11 07:17:04;;;;;;;255.63;23.48;;;0.70;99.90;;;;;;5123969;27;20054;-65
2021/12/11 07:19:30;;;;;;;225.88;21.65;;;0.70;99.90;;;;;;5134428;27;20398;-65
2021/12/11 07:21:55;;;;;;;156.75;18.80;;;0.60;99.90;;;;;;5129816;27;20697;-65
2021/12/11 07:24:32;;;;;;;197.82;18.65;;;0.70;99.90;;;;;;5128857;27;20035;-65
2021/12/11 07:27:00;;;;;;;216.90;20.30;;;0.60;99.90;;;;;;5144805;27;20059;-66
2021/12/11 07:29:26;;;;;;;222.90;19.60;;;0.60;99.90;;;;;;5124575;28;20047;-65
2021/12/11 07:31:53;;;;;;;174.63;19.67;;;0.70;99.90;;;;;;5128853;28;20123;-65
2021/12/11 07:34:20;;;;;;;190.00;18.15;;;0.60;99.90;;;;;;5136844;27;20099;-65
2021/12/11 07:36:46;;;;;;;137.13;17.52;;;0.60;99.90;;;;;;5116722;28;20039;-66
2021/12/11 07:39:14;;;;;;;126.30;15.75;;;0.50;99.90;;;;;;5110539;28;20100;-65
2021/12/11 07:41:40;;;;;;;57.92;12.38;;;0.50;99.90;;;;;;5111448;28;20135;-65
2021/12/11 07:44:06;;;;;;;66.90;12.95;;;0.50;99.90;;;;;;5123286;27;20134;-65
2021/12/11 07:46:33;;;;;;;96.68;13.38;;;0.50;99.90;;;;;;5130764;27;20049;-65
2021/12/11 07:49:00;;;;;;;55.75;12.38;;;0.50;99.90;;;;;;5143797;27;20042;-65
2021/12/11 07:51:28;;;;;;;111.93;14.85;;;0.50;99.90;;;;;;5135757;27;20051;-65
2021/12/11 07:53:54;;;;;;;84.68;12.02;;;0.50;99.90;;;;;;5124007;27;20531;-65
2021/12/11 07:56:21;;;;;;;103.20;13.30;;;0.50;99.90;;;;;;5134321;27;20141;-65
2021/12/11 07:58:49;;;;;;;104.85;13.75;;;0.50;99.90;;;;;;5130638;27;20090;-65
2021/12/11 08:01:16;;;;;;;131.95;14.15;;;0.40;99.90;;;;;;5135208;27;20078;-65
2021/12/11 08:03:42;;;;;;;88.93;12.73;;;0.30;99.90;;;;;;5106729;28;20080;-65
2021/12/11 08:06:09;;;;;;;41.90;11.25;;;0.30;99.90;;;;;;5128655;27;20043;-65
2021/12/11 08:08:37;;;;;;;50.00;10.50;;;0.30;99.90;;;;;;5114239;28;20047;-65
2021/12/11 08:11:06;;;;;;;77.13;11.80;;;0.30;99.90;;;;;;5122585;27;20118;-66
2021/12/11 08:13:32;;;;;;;72.38;12.13;;;0.20;99.90;;;;;;5101846;28;20035;-66
2021/12/11 08:15:59;;;;;;;115.47;13.77;;;0.10;99.90;;;;;;5122817;28;20084;-66
2021/12/11 08:18:26;;;;;;;54.50;12.20;;;0.10;99.90;;;;;;5119822;27;20028;-66
2021/12/11 08:20:53;;;;;;;61.55;12.30;;;0.00;99.90;;;;;;5119898;27;20053;-65
2021/12/11 08:23:19;;;;;;;93.68;14.40;;;0.00;99.90;;;;;;5120727;27;20060;-67
2021/12/11 08:25:47;;;;;;;65.38;11.57;;;-0.10;99.90;;;;;;5109260;27;20135;-67
2021/12/11 08:28:18;;;;;;;35.13;11.82;;;0.00;99.90;;;;;;5110706;27;20054;-67
2021/12/11 08:30:47;;;;;;;77.50;11.90;;;0.00;99.90;;;;;;5127527;27;20046;-67
2021/12/11 08:33:14;;;;;;;95.80;13.98;;;0.00;99.90;;;;;;5123080;27;20070;-67
2021/12/11 08:35:40;;;;;;;23.40;12.48;;;0.00;99.90;;;;;;5123142;27;20086;-67
2021/12/11 08:38:06;;;;;;;79.45;13.95;;;0.00;99.90;;;;;;5112977;27;20051;-67
2021/12/11 08:40:36;;;;;;;33.80;12.20;;;0.00;99.90;;;;;;5133061;27;20052;-67
2021/12/11 08:43:05;;;;;;;39.72;11.85;;;0.00;99.90;;;;;;5131092;27;20095;-67
2021/12/11 08:45:46;;;;;;;37.72;11.77;;;0.00;99.90;;;;;;5114278;27;20082;-66
2021/12/11 08:48:15;;;;;;;39.90;13.15;;;0.10;99.90;;;;;;5120942;27;20042;-66
2021/12/11 08:50:42;;;;;;;20.65;11.52;;;0.10;99.90;;;;;;5136064;27;20061;-66
2021/12/11 08:53:08;;;;;;;34.95;12.68;;;0.20;99.90;;;;;;5152938;27;20057;-66
2021/12/11 08:55:38;;;;;;;18.83;11.85;;;0.30;99.90;;;;;;5129773;27;20043;-66
2021/12/11 08:58:11;;;;;;;24.17;11.77;;;0.30;99.90;;;;;;5132096;27;20039;-66
2021/12/11 09:00:49;;;;;;;23.73;12.15;;;0.40;99.90;;;;;;5118546;27;20047;-66
2021/12/11 09:03:24;;;;;;;20.73;10.85;;;0.40;99.90;;;;;;5146379;27;20058;-66
2021/12/11 09:05:55;;;;;;;20.52;11.55;;;0.50;99.90;;;;;;5132676;27;20402;-66
2021/12/11 09:08:30;;;;;;;26.98;12.93;;;0.40;99.90;;;;;;5131772;27;20074;-66
2021/12/11 09:11:05;;;;;;;23.40;12.48;;;0.50;99.90;;;;;;5127259;27;20054;-66
2021/12/11 09:13:54;;;;;;;19.10;13.45;;;0.60;99.90;;;;;;5139481;27;20061;-66
2021/12/11 09:16:28;;;;;;;17.73;13.10;;;0.60;99.90;;;;;;5131449;27;20044;-66
2021/12/11 09:19:21;;;;;;;18.25;13.15;;;0.60;99.90;;;;;;5110555;27;20046;-66
2021/12/11 09:22:05;;;;;;;17.70;12.52;;;0.70;99.90;;;;;;5129395;27;20089;-66
2021/12/11 09:24:55;;;;;;;19.50;13.35;;;0.70;99.90;;;;;;5128118;27;20055;-66
2021/12/11 09:27:22;;;;;;;17.30;12.63;;;0.80;99.90;;;;;;5117539;27;20051;-66
2021/12/11 09:30:04;;;;;;;18.23;13.30;;;0.80;99.90;;;;;;5137925;27;20472;-66
2021/12/11 09:32:39;;;;;;;16.98;12.15;;;0.90;99.90;;;;;;5133678;27;20050;-66
2021/12/11 09:35:09;;;;;;;23.52;15.27;;;0.90;99.90;;;;;;5113042;27;20043;-67
2021/12/11 09:37:36;;;;;;;23.48;16.42;;;0.90;99.90;;;;;;5117412;27;20505;-67
2021/12/11 09:40:08;;;;;;;24.25;18.00;;;0.90;99.90;;;;;;5140504;27;20042;-67
2021/12/11 09:42:33;;;;;;;24.17;17.58;;;1.00;99.90;;;;;;5131200;27;20036;-67
2021/12/11 09:45:07;;;;;;;23.92;18.50;;;1.10;99.90;;;;;;5132303;27;20081;-67
2021/12/11 09:47:40;;;;;;;22.38;17.67;;;1.10;99.90;;;;;;5115037;27;20047;-67
2021/12/11 09:50:11;;;;;;;23.30;17.23;;;1.10;99.90;;;;;;5127492;27;20069;-67
2021/12/11 09:52:38;;;;;;;23.05;16.70;;;1.20;99.90;;;;;;5129360;27;20046;-67
2021/12/11 09:55:17;;;;;;;20.20;15.57;;;1.30;99.90;;;;;;5129161;27;20509;-66
2021/12/11 09:57:49;;;;;;;18.75;15.10;;;1.30;99.90;;;;;;5131921;27;20088;-67
2021/12/11 10:00:29;;;;;;;27.38;16.60;;;1.40;99.90;;;;;;5113088;27;20055;-67
2021/12/11 10:02:55;;;;;;;21.40;14.70;;;1.50;99.90;;;;;;5120839;27;20058;-67
2021/12/11 10:05:31;;;;;;;23.92;14.98;;;1.60;99.90;;;;;;5152445;27;20050;-67
2021/12/11 10:08:30;;;;;;;22.48;16.80;;;1.80;99.90;;;;;;5151580;27;20042;-67
2021/12/11 10:11:20;;;;;;;31.48;17.67;;;1.90;99.90;;;;;;5109531;27;20402;-66
2021/12/11 10:13:49;;;;;;;24.15;16.60;;;2.00;99.90;;;;;;5101309;27;20122;-67
2021/12/11 10:16:19;;;;;;;21.98;15.65;;;2.00;99.90;;;;;;5133210;27;20171;-67
2021/12/11 10:18:45;;;;;;;22.75;16.13;;;2.10;99.90;;;;;;5149360;27;20066;-66
2021/12/11 10:21:27;;;;;;;28.05;16.45;;;2.20;99.90;;;;;;5112411;27;20051;-66
2021/12/11 10:23:55;;;;;;;26.75;18.10;;;2.30;99.90;;;;;;5129260;27;20054;-66
2021/12/11 10:26:25;;;;;;;26.80;16.73;;;2.30;99.90;;;;;;5130864;27;20121;-66
2021/12/11 10:28:53;;;;;;;29.83;18.42;;;2.40;99.90;;;;;;5110629;27;20411;-67
2021/12/11 10:31:24;;;;;;;30.25;19.08;;;2.40;99.90;;;;;;5146937;27;20039;-66
2021/12/11 10:33:50;;;;;;;30.85;21.05;;;2.50;99.90;;;;;;5137300;27;20046;-66
2021/12/11 10:36:28;;;;;;;28.35;20.15;;;2.60;99.90;;;;;;5132617;27;20134;-67
2021/12/11 10:38:56;;;;;;;30.75;19.75;;;2.60;99.90;;;;;;5129691;27;20039;-66
2021/12/11 10:41:24;;;;;;;36.90;20.55;;;2.70;99.90;;;;;;5109414;27;20093;-66
2021/12/11 10:43:57;;;;;;;52.22;20.58;;;2.70;99.90;;;;;;5130270;27;20040;-67
2021/12/11 10:46:28;;;;;;;29.60;19.48;;;2.70;99.90;;;;;;5130543;27;20390;-67
2021/12/11 10:48:54;;;;;;;29.35;20.75;;;2.70;99.90;;;;;;5132566;27;20035;-67
2021/12/11 10:51:26;;;;;;;37.75;20.45;;;2.80;99.90;;;;;;5130390;27;20125;-67
2021/12/11 10:53:52;;;;;;;33.05;20.83;;;2.90;99.90;;;;;;5129840;27;20055;-67
2021/12/11 10:56:20;;;;;;;33.08;21.85;;;3.00;99.90;;;;;;5122725;27;20135;-67
2021/12/11 10:58:49;;;;;;;35.28;20.85;;;3.00;99.90;;;;;;5145006;27;20095;-67
2021/12/11 11:01:21;;;;;;;35.35;21.00;;;3.10;99.90;;;;;;5141431;27;20074;-67
2021/12/11 11:03:51;;;;;;;36.25;22.95;;;3.10;99.90;;;;;;5150039;27;20038;-67
2021/12/11 11:06:17;;;;;;;39.95;24.27;;;3.30;99.90;;;;;;5138462;27;20708;-67
2021/12/11 11:08:42;;;;;;;37.35;22.27;;;3.30;99.90;;;;;;5121223;27;20051;-67
2021/12/11 11:11:13;;;;;;;32.88;20.85;;;3.40;99.90;;;;;;5136435;27;20051;-67
2021/12/11 11:13:41;;;;;;;35.10;20.23;;;3.50;99.90;;;;;;5150993;27;20038;-67
2021/12/11 11:16:07;;;;;;;31.75;19.13;;;3.50;99.90;;;;;;5129563;27;20055;-67
2021/12/11 11:18:33;;;;;;;44.88;21.60;;;3.60;99.90;;;;;;5118144;27;20050;-67
2021/12/11 11:21:07;;;;;;;31.88;20.00;;;3.60;99.90;;;;;;5098386;28;20043;-67
2021/12/11 11:23:33;;;;;;;42.25;21.52;;;3.70;99.90;;;;;;5110473;28;20035;-67
2021/12/11 11:26:04;;;;;;;34.13;21.98;;;3.80;99.90;;;;;;5126584;28;20039;-67
2021/12/11 11:28:33;;;;;;;38.47;22.35;;;3.80;99.90;;;;;;5109846;28;20085;-67
2021/12/11 11:31:01;;;;;;;29.90;18.85;;;3.90;99.90;;;;;;5123391;27;20107;-68
2021/12/11 11:33:28;;;;;;;39.97;22.45;;;4.00;99.90;;;;;;5150765;27;20125;-67
2021/12/11 11:35:55;;;;;;;38.75;20.38;;;4.20;99.90;;;;;;5126375;27;20099;-67
2021/12/11 11:38:24;;;;;;;38.53;22.08;;;4.30;99.90;;;;;;5109921;28;20048;-67
2021/12/11 11:40:55;;;;;;;30.00;20.05;;;4.50;99.90;;;;;;5110891;28;20077;-67
2021/12/11 11:43:21;;;;;;;37.75;21.10;;;4.50;99.90;;;;;;5110339;28;20466;-67
2021/12/11 11:45:52;;;;;;;29.63;19.40;;;4.60;99.90;;;;;;5147373;27;20397;-67
2021/12/11 11:48:20;;;;;;;38.50;21.23;;;4.70;99.90;;;;;;5149592;27;20497;-67
2021/12/11 11:50:47;;;;;;;41.15;19.83;;;4.60;99.90;;;;;;5113585;27;20106;-67
2021/12/11 11:53:13;;;;;;;34.80;20.25;;;4.60;99.90;;;;;;5133696;27;20509;-67
2021/12/11 11:55:45;;;;;;;33.70;20.17;;;4.50;99.90;;;;;;5124543;27;20455;-67
2021/12/11 11:58:11;;;;;;;37.42;20.38;;;4.50;99.90;;;;;;5133585;27;20035;-67
2021/12/11 12:00:47;;;;;;;32.80;20.88;;;4.60;99.90;;;;;;5133568;27;20679;-67
2021/12/11 12:03:16;;;;;;;40.85;22.52;;;4.60;99.90;;;;;;5140136;27;20094;-67
2021/12/11 12:05:45;;;;;;;43.00;21.25;;;4.70;99.90;;;;;;5134810;27;20047;-67
2021/12/11 12:08:12;;;;;;;36.78;20.20;;;4.70;99.90;;;;;;5154471;27;20411;-67
2021/12/11 12:10:38;;;;;;;45.13;23.00;;;4.80;99.90;;;;;;5135373;27;20048;-67
2021/12/11 12:13:07;;;;;;;40.92;22.45;;;5.10;99.90;;;;;;5153589;27;20039;-67
2021/12/11 12:15:38;;;;;;;44.67;21.10;;;5.30;99.90;;;;;;5154465;27;20068;-67
2021/12/11 12:18:05;;;;;;;37.72;20.73;;;5.50;99.90;;;;;;5113724;27;20051;-67
2021/12/11 12:20:32;;;;;;;28.67;18.58;;;5.70;99.90;;;;;;5132517;27;20500;-67
2021/12/11 12:22:58;;;;;;;36.92;18.67;;;5.80;99.90;;;;;;5113956;27;20055;-67
2021/12/11 12:25:26;;;;;;;29.45;18.08;;;6.00;99.90;;;;;;5136760;27;20040;-67
2021/12/11 12:27:51;;;;;;;36.15;19.27;;;6.00;99.90;;;;;;5140184;27;20043;-67
2021/12/11 12:30:20;;;;;;;30.95;17.83;;;6.00;99.90;;;;;;5123885;27;20422;-67
2021/12/11 12:32:47;;;;;;;36.33;19.27;;;6.10;99.90;;;;;;5151254;27;20057;-67
2021/12/11 12:35:18;;;;;;;33.38;18.77;;;6.20;99.90;;;;;;5111860;27;20054;-67
2021/12/11 12:37:45;;;;;;;30.08;18.58;;;6.30;99.90;;;;;;5132452;27;20096;-67
2021/12/11 12:40:18;;;;;;;29.77;17.90;;;6.30;99.90;;;;;;5152213;27;20042;-67
2021/12/11 12:42:52;;;;;;;26.42;16.52;;;6.10;99.90;;;;;;5116964;27;20085;-67
2021/12/11 12:45:24;;;;;;;36.85;18.08;;;6.00;99.90;;;;;;5133133;27;20037;-67
2021/12/11 12:47:56;;;;;;;41.20;17.67;;;5.90;99.90;;;;;;5128644;27;20107;-67
2021/12/11 12:50:49;;;;;;;31.65;18.30;;;5.80;99.90;;;;;;5116576;27;20036;-67
2021/12/11 12:53:16;;;;;;;34.92;19.27;;;5.70;99.90;;;;;;5131976;27;20051;-68
2021/12/11 12:55:51;;;;;;;36.78;17.00;;;5.70;99.90;;;;;;5105971;27;20389;-67
2021/12/11 12:58:21;;;;;;;26.38;16.85;;;6.00;99.90;;;;;;5139748;27;20396;-67
2021/12/11 13:00:58;;;;;;;35.95;16.60;;;6.30;99.90;;;;;;5130819;27;20483;-67
2021/12/11 13:03:29;;;;;;;31.67;16.65;;;6.60;99.90;;;;;;5113377;27;20138;-67